sensor_id;sensor_type;location;lat;lon;timestamp;temperature;humidity
5683;DHT22;2864;49.220;8.654;2022-09-09T00:07:51;14.60;99.90
5683;DHT22;2864;49.220;8.654;2022-09-09T00:10:28;14.60;99.90
5683;DHT22;2864;49.220;8.654;2022-09-09T00:15:59;14.70;99.90
5683;DHT22;2864;49.220;8.654;2022-09-09T00:21:01;14.70;99.90
5683;DHT22;2864;49.220;8.654;2022-09-09T00:23:37;14.70;99.90
5683;DHT22;2864;49.220;8.654;2022-09-09T00:28:48;14.80;99.90
5683;DHT22;2864;49.220;8.654;2022-09-09T00:31:25;14.80;99.90
5683;DHT22;2864;49.220;8.654;2022-09-09T00:33:53;14.80;99.90
5683;DHT22;2864;49.220;8.654;2022-09-09T00:36:21;14.80;99.90
5683;DHT22;2864;49.220;8.654;2022-09-09T00:38:56;14.90;99.90
5683;DHT22;2864;49.220;8.654;2022-09-09T00:44:34;14.90;99.90
5683;DHT22;2864;49.220;8.654;2022-09-09T00:50:35;14.90;99.90
5683;DHT22;2864;49.220;8.654;2022-09-09T00:53:27;14.80;99.90
5683;DHT22;2864;49.220;8.654;2022-09-09T00:56:18;14.80;99.90
5683;DHT22;2864;49.220;8.654;2022-09-09T01:01:24;14.80;99.90
5683;DHT22;2864;49.220;8.654;2022-09-09T01:03:55;14.90;99.90
5683;DHT22;2864;49.220;8.654;2022-09-09T01:06:35;14.90;99.90
5683;DHT22;2864;49.220;8.654;2022-09-09T01:17:26;15.10;99.90
5683;DHT22;2864;49.220;8.654;2022-09-09T01:20:29;15.10;99.90
5683;DHT22;2864;49.220;8.654;2022-09-09T01:28:14;15.20;99.90
5683;DHT22;2864;49.220;8.654;2022-09-09T01:30:41;15.20;99.90
5683;DHT22;2864;49.220;8.654;2022-09-09T01:33:13;15.20;99.90
5683;DHT22;2864;49.220;8.654;2022-09-09T01:35:57;15.30;99.90
5683;DHT22;2864;49.220;8.654;2022-09-09T01:38:29;15.30;99.90
5683;DHT22;2864;49.220;8.654;2022-09-09T01:40:55;15.30;99.90
5683;DHT22;2864;49.220;8.654;2022-09-09T01:43:22;15.30;99.90
5683;DHT22;2864;49.220;8.654;2022-09-09T01:45:52;15.40;99.90
5683;DHT22;2864;49.220;8.654;2022-09-09T01:48:21;15.40;99.90
5683;DHT22;2864;49.220;8.654;2022-09-09T01:54:10;15.50;99.90
5683;DHT22;2864;49.220;8.654;2022-09-09T02:02:14;15.50;99.90
5683;DHT22;2864;49.220;8.654;2022-09-09T02:04:49;15.60;99.90
5683;DHT22;2864;49.220;8.654;2022-09-09T02:07:41;15.60;99.90
5683;DHT22;2864;49.220;8.654;2022-09-09T02:13:12;15.60;99.90
5683;DHT22;2864;49.220;8.654;2022-09-09T02:15:43;15.60;99.90
5683;DHT22;2864;49.220;8.654;2022-09-09T02:18:12;15.60;99.90
5683;DHT22;2864;49.220;8.654;2022-09-09T02:20:39;15.80;99.90
5683;DHT22;2864;49.220;8.654;2022-09-09T02:23:07;15.80;99.90
5683;DHT22;2864;49.220;8.654;2022-09-09T02:25:35;15.90;99.90
5683;DHT22;2864;49.220;8.654;2022-09-09T02:28:03;15.80;99.90
5683;DHT22;2864;49.220;8.654;2022-09-09T02:30:32;15.80;99.90
5683;DHT22;2864;49.220;8.654;2022-09-09T02:33:01;15.70;99.90
5683;DHT22;2864;49.220;8.654;2022-09-09T02:35:29;15.60;99.90
5683;DHT22;2864;49.220;8.654;2022-09-09T02:37:59;15.50;99.90
5683;DHT22;2864;49.220;8.654;2022-09-09T02:40:27;15.40;99.90
5683;DHT22;2864;49.220;8.654;2022-09-09T02:42:54;15.40;99.90
5683;DHT22;2864;49.220;8.654;2022-09-09T02:45:24;15.30;99.90
5683;DHT22;2864;49.220;8.654;2022-09-09T02:50:26;15.20;99.90
5683;DHT22;2864;49.220;8.654;2022-09-09T02:56:04;15.20;99.90
5683;DHT22;2864;49.220;8.654;2022-09-09T02:58:27;15.10;99.90
5683;DHT22;2864;49.220;8.654;2022-09-09T03:00:53;15.00;99.90
5683;DHT22;2864;49.220;8.654;2022-09-09T03:03:20;15.00;99.90
5683;DHT22;2864;49.220;8.654;2022-09-09T03:05:47;14.90;99.90
5683;DHT22;2864;49.220;8.654;2022-09-09T03:08:13;14.90;99.90
5683;DHT22;2864;49.220;8.654;2022-09-09T03:10:39;15.00;99.90
5683;DHT22;2864;49.220;8.654;2022-09-09T03:13:05;15.00;99.90
5683;DHT22;2864;49.220;8.654;2022-09-09T03:15:34;15.00;99.90
5683;DHT22;2864;49.220;8.654;2022-09-09T03:18:00;15.00;99.90
5683;DHT22;2864;49.220;8.654;2022-09-09T03:20:28;14.90;99.90
5683;DHT22;2864;49.220;8.654;2022-09-09T03:22:55;14.80;99.90
5683;DHT22;2864;49.220;8.654;2022-09-09T03:25:22;14.80;99.90
5683;DHT22;2864;49.220;8.654;2022-09-09T03:27:52;14.80;99.90
5683;DHT22;2864;49.220;8.654;2022-09-09T03:30:21;14.70;99.90
5683;DHT22;2864;49.220;8.654;2022-09-09T03:32:47;14.70;99.90
5683;DHT22;2864;49.220;8.654;2022-09-09T03:35:13;14.70;99.90
5683;DHT22;2864;49.220;8.654;2022-09-09T03:37:39;14.70;99.90
5683;DHT22;2864;49.220;8.654;2022-09-09T03:40:06;14.70;99.90
5683;DHT22;2864;49.220;8.654;2022-09-09T03:42:37;14.70;99.90
5683;DHT22;2864;49.220;8.654;2022-09-09T03:45:04;14.80;99.90
5683;DHT22;2864;49.220;8.654;2022-09-09T03:47:30;14.80;99.90
5683;DHT22;2864;49.220;8.654;2022-09-09T03:49:56;14.90;99.90
5683;DHT22;2864;49.220;8.654;2022-09-09T03:52:21;14.90;99.90
5683;DHT22;2864;49.220;8.654;2022-09-09T03:54:50;14.80;99.90
5683;DHT22;2864;49.220;8.654;2022-09-09T03:57:16;14.80;99.90
5683;DHT22;2864;49.220;8.654;2022-09-09T03:59:43;14.80;99.90
5683;DHT22;2864;49.220;8.654;2022-09-09T04:02:08;14.90;99.90
5683;DHT22;2864;49.220;8.654;2022-09-09T04:04:34;14.90;99.90
5683;DHT22;2864;49.220;8.654;2022-09-09T04:07:00;15.00;99.90
5683;DHT22;2864;49.220;8.654;2022-09-09T04:09:26;14.90;99.90
5683;DHT22;2864;49.220;8.654;2022-09-09T04:11:52;14.90;99.90
5683;DHT22;2864;49.220;8.654;2022-09-09T04:14:19;15.00;99.90
5683;DHT22;2864;49.220;8.654;2022-09-09T04:16:45;15.00;99.90
5683;DHT22;2864;49.220;8.654;2022-09-09T04:19:12;14.90;99.90
5683;DHT22;2864;49.220;8.654;2022-09-09T04:21:39;14.90;99.90
5683;DHT22;2864;49.220;8.654;2022-09-09T04:24:06;14.90;99.90
5683;DHT22;2864;49.220;8.654;2022-09-09T04:26:32;15.00;99.90
5683;DHT22;2864;49.220;8.654;2022-09-09T04:28:58;15.00;99.90
5683;DHT22;2864;49.220;8.654;2022-09-09T04:31:23;14.90;99.90
5683;DHT22;2864;49.220;8.654;2022-09-09T04:33:50;14.90;99.90
5683;DHT22;2864;49.220;8.654;2022-09-09T04:36:16;14.90;99.90
5683;DHT22;2864;49.220;8.654;2022-09-09T04:38:43;14.90;99.90
5683;DHT22;2864;49.220;8.654;2022-09-09T04:41:10;15.00;99.90
5683;DHT22;2864;49.220;8.654;2022-09-09T04:43:36;15.00;99.90
5683;DHT22;2864;49.220;8.654;2022-09-09T04:46:03;15.00;99.90
5683;DHT22;2864;49.220;8.654;2022-09-09T04:48:29;15.00;99.90
5683;DHT22;2864;49.220;8.654;2022-09-09T04:51:00;14.90;99.90
5683;DHT22;2864;49.220;8.654;2022-09-09T04:53:26;14.90;99.90
5683;DHT22;2864;49.220;8.654;2022-09-09T04:56:00;15.00;99.90
5683;DHT22;2864;49.220;8.654;2022-09-09T04:58:26;14.90;99.90
5683;DHT22;2864;49.220;8.654;2022-09-09T05:00:52;14.90;99.90
5683;DHT22;2864;49.220;8.654;2022-09-09T05:03:18;14.90;99.90
5683;DHT22;2864;49.220;8.654;2022-09-09T05:05:44;14.90;99.90
5683;DHT22;2864;49.220;8.654;2022-09-09T05:08:10;14.90;99.90
5683;DHT22;2864;49.220;8.654;2022-09-09T05:10:38;14.90;99.90
5683;DHT22;2864;49.220;8.654;2022-09-09T05:13:04;15.00;99.90
5683;DHT22;2864;49.220;8.654;2022-09-09T05:15:30;15.00;99.90
5683;DHT22;2864;49.220;8.654;2022-09-09T05:17:59;14.90;99.90
5683;DHT22;2864;49.220;8.654;2022-09-09T05:20:26;14.90;99.90
5683;DHT22;2864;49.220;8.654;2022-09-09T05:22:55;14.90;99.90
5683;DHT22;2864;49.220;8.654;2022-09-09T05:25:22;14.90;99.90
5683;DHT22;2864;49.220;8.654;2022-09-09T05:27:47;15.00;99.90
5683;DHT22;2864;49.220;8.654;2022-09-09T05:30:13;15.10;99.90
5683;DHT22;2864;49.220;8.654;2022-09-09T05:32:39;15.10;99.90
5683;DHT22;2864;49.220;8.654;2022-09-09T05:35:05;15.20;99.90
5683;DHT22;2864;49.220;8.654;2022-09-09T05:37:31;15.20;99.90
5683;DHT22;2864;49.220;8.654;2022-09-09T05:39:57;15.20;99.90
5683;DHT22;2864;49.220;8.654;2022-09-09T05:42:23;15.30;99.90
5683;DHT22;2864;49.220;8.654;2022-09-09T05:44:49;15.30;99.90
5683;DHT22;2864;49.220;8.654;2022-09-09T05:47:16;15.40;99.90
5683;DHT22;2864;49.220;8.654;2022-09-09T05:49:42;15.50;99.90
5683;DHT22;2864;49.220;8.654;2022-09-09T05:52:08;15.60;99.90
5683;DHT22;2864;49.220;8.654;2022-09-09T05:54:35;15.70;99.90
5683;DHT22;2864;49.220;8.654;2022-09-09T05:57:03;15.80;99.90
5683;DHT22;2864;49.220;8.654;2022-09-09T05:59:29;15.90;99.90
5683;DHT22;2864;49.220;8.654;2022-09-09T06:01:54;16.00;99.90
5683;DHT22;2864;49.220;8.654;2022-09-09T06:04:20;16.10;99.90
5683;DHT22;2864;49.220;8.654;2022-09-09T06:06:47;16.10;99.90
5683;DHT22;2864;49.220;8.654;2022-09-09T06:09:14;16.20;99.90
5683;DHT22;2864;49.220;8.654;2022-09-09T06:11:41;16.20;99.90
5683;DHT22;2864;49.220;8.654;2022-09-09T06:14:07;16.20;99.90
5683;DHT22;2864;49.220;8.654;2022-09-09T06:16:33;16.30;99.90
5683;DHT22;2864;49.220;8.654;2022-09-09T06:19:00;16.40;99.90
5683;DHT22;2864;49.220;8.654;2022-09-09T06:21:32;16.50;99.90
5683;DHT22;2864;49.220;8.654;2022-09-09T06:24:02;16.70;99.90
5683;DHT22;2864;49.220;8.654;2022-09-09T06:26:33;16.80;99.90
5683;DHT22;2864;49.220;8.654;2022-09-09T06:29:00;16.90;99.90
5683;DHT22;2864;49.220;8.654;2022-09-09T06:31:28;17.00;99.90
5683;DHT22;2864;49.220;8.654;2022-09-09T06:33:58;17.00;99.90
5683;DHT22;2864;49.220;8.654;2022-09-09T06:36:25;17.10;99.90
5683;DHT22;2864;49.220;8.654;2022-09-09T06:38:51;17.10;99.90
5683;DHT22;2864;49.220;8.654;2022-09-09T06:41:19;17.20;99.90
5683;DHT22;2864;49.220;8.654;2022-09-09T06:43:46;17.20;99.90
5683;DHT22;2864;49.220;8.654;2022-09-09T06:46:13;17.30;99.90
5683;DHT22;2864;49.220;8.654;2022-09-09T06:48:39;17.30;99.90
5683;DHT22;2864;49.220;8.654;2022-09-09T06:51:20;17.40;99.90
5683;DHT22;2864;49.220;8.654;2022-09-09T06:53:49;17.40;99.90
5683;DHT22;2864;49.220;8.654;2022-09-09T06:56:21;17.40;99.90
5683;DHT22;2864;49.220;8.654;2022-09-09T06:58:49;17.50;99.90
5683;DHT22;2864;49.220;8.654;2022-09-09T07:01:16;17.60;99.90
5683;DHT22;2864;49.220;8.654;2022-09-09T07:03:46;17.70;99.90
5683;DHT22;2864;49.220;8.654;2022-09-09T07:06:26;17.80;99.90
5683;DHT22;2864;49.220;8.654;2022-09-09T07:08:54;17.60;99.90
5683;DHT22;2864;49.220;8.654;2022-09-09T07:11:22;17.70;99.90
5683;DHT22;2864;49.220;8.654;2022-09-09T07:13:48;17.70;99.90
5683;DHT22;2864;49.220;8.654;2022-09-09T07:16:19;17.60;99.90
5683;DHT22;2864;49.220;8.654;2022-09-09T07:18:45;17.80;99.90
5683;DHT22;2864;49.220;8.654;2022-09-09T07:21:13;17.90;99.90
5683;DHT22;2864;49.220;8.654;2022-09-09T07:23:39;18.10;99.90
5683;DHT22;2864;49.220;8.654;2022-09-09T07:26:16;18.30;99.90
5683;DHT22;2864;49.220;8.654;2022-09-09T07:28:42;18.50;99.90
5683;DHT22;2864;49.220;8.654;2022-09-09T07:31:16;18.60;99.90
5683;DHT22;2864;49.220;8.654;2022-09-09T07:33:42;18.60;99.90
5683;DHT22;2864;49.220;8.654;2022-09-09T07:36:16;18.80;99.90
5683;DHT22;2864;49.220;8.654;2022-09-09T07:38:46;19.00;99.90
5683;DHT22;2864;49.220;8.654;2022-09-09T07:41:24;19.10;99.90
5683;DHT22;2864;49.220;8.654;2022-09-09T07:43:54;19.10;99.90
5683;DHT22;2864;49.220;8.654;2022-09-09T07:46:22;19.10;99.90
5683;DHT22;2864;49.220;8.654;2022-09-09T07:48:51;19.10;99.90
5683;DHT22;2864;49.220;8.654;2022-09-09T07:51:20;20.20;99.90
5683;DHT22;2864;49.220;8.654;2022-09-09T07:53:48;19.00;99.90
5683;DHT22;2864;49.220;8.654;2022-09-09T07:56:16;19.00;99.90
5683;DHT22;2864;49.220;8.654;2022-09-09T07:58:44;18.90;99.90
5683;DHT22;2864;49.220;8.654;2022-09-09T08:01:13;18.90;99.90
5683;DHT22;2864;49.220;8.654;2022-09-09T08:03:39;18.70;99.90
5683;DHT22;2864;49.220;8.654;2022-09-09T08:06:07;18.70;99.90
5683;DHT22;2864;49.220;8.654;2022-09-09T08:08:34;18.90;99.90
5683;DHT22;2864;49.220;8.654;2022-09-09T08:11:14;19.00;99.90
5683;DHT22;2864;49.220;8.654;2022-09-09T08:13:41;19.10;99.90
5683;DHT22;2864;49.220;8.654;2022-09-09T08:16:13;19.10;99.90
5683;DHT22;2864;49.220;8.654;2022-09-09T08:18:47;19.40;99.90
5683;DHT22;2864;49.220;8.654;2022-09-09T08:21:18;19.70;99.90
5683;DHT22;2864;49.220;8.654;2022-09-09T08:23:58;20.00;99.90
5683;DHT22;2864;49.220;8.654;2022-09-09T08:26:28;19.90;99.90
5683;DHT22;2864;49.220;8.654;2022-09-09T08:28:58;20.30;99.90
5683;DHT22;2864;49.220;8.654;2022-09-09T08:31:35;20.50;99.90
5683;DHT22;2864;49.220;8.654;2022-09-09T08:34:09;20.70;99.90
5683;DHT22;2864;49.220;8.654;2022-09-09T08:36:48;20.30;99.90
5683;DHT22;2864;49.220;8.654;2022-09-09T08:39:19;19.90;99.90
5683;DHT22;2864;49.220;8.654;2022-09-09T08:42:16;19.40;99.90
5683;DHT22;2864;49.220;8.654;2022-09-09T08:50:25;18.50;99.90
5683;DHT22;2864;49.220;8.654;2022-09-09T08:53:17;18.10;99.90
5683;DHT22;2864;49.220;8.654;2022-09-09T08:55:52;18.20;99.90
5683;DHT22;2864;49.220;8.654;2022-09-09T08:58:35;18.30;99.90
5683;DHT22;2864;49.220;8.654;2022-09-09T09:04:00;18.80;99.90
5683;DHT22;2864;49.220;8.654;2022-09-09T09:06:45;19.00;99.90
5683;DHT22;2864;49.220;8.654;2022-09-09T09:12:19;19.30;99.90
5683;DHT22;2864;49.220;8.654;2022-09-09T09:14:48;19.30;99.90
5683;DHT22;2864;49.220;8.654;2022-09-09T09:17:18;19.40;99.90
5683;DHT22;2864;49.220;8.654;2022-09-09T09:19:45;19.40;99.90
5683;DHT22;2864;49.220;8.654;2022-09-09T09:27:57;19.10;99.90
5683;DHT22;2864;49.220;8.654;2022-09-09T09:30:31;19.20;99.90
5683;DHT22;2864;49.220;8.654;2022-09-09T09:33:03;19.20;99.90
5683;DHT22;2864;49.220;8.654;2022-09-09T09:35:34;19.20;99.90
5683;DHT22;2864;49.220;8.654;2022-09-09T09:37:59;19.40;99.90
5683;DHT22;2864;49.220;8.654;2022-09-09T09:40:26;19.60;99.90
5683;DHT22;2864;49.220;8.654;2022-09-09T09:43:02;19.80;99.90
5683;DHT22;2864;49.220;8.654;2022-09-09T09:45:34;19.90;99.90
5683;DHT22;2864;49.220;8.654;2022-09-09T09:48:05;20.40;99.90
5683;DHT22;2864;49.220;8.654;2022-09-09T09:50:32;20.60;99.90
5683;DHT22;2864;49.220;8.654;2022-09-09T09:53:00;20.90;99.90
5683;DHT22;2864;49.220;8.654;2022-09-09T09:55:28;20.90;99.90
5683;DHT22;2864;49.220;8.654;2022-09-09T09:58:06;20.80;99.80
5683;DHT22;2864;49.220;8.654;2022-09-09T10:00:48;20.60;99.90
5683;DHT22;2864;49.220;8.654;2022-09-09T10:03:27;20.70;99.90
5683;DHT22;2864;49.220;8.654;2022-09-09T10:05:54;20.80;99.50
5683;DHT22;2864;49.220;8.654;2022-09-09T10:08:22;20.90;99.90
5683;DHT22;2864;49.220;8.654;2022-09-09T10:19:16;20.40;97.20
5683;DHT22;2864;49.220;8.654;2022-09-09T10:21:56;20.10;99.90
5683;DHT22;2864;49.220;8.654;2022-09-09T10:30:05;19.70;99.90
5683;DHT22;2864;49.220;8.654;2022-09-09T10:35:44;19.70;99.90
5683;DHT22;2864;49.220;8.654;2022-09-09T10:41:19;20.40;99.90
5683;DHT22;2864;49.220;8.654;2022-09-09T10:44:17;20.40;99.90
5683;DHT22;2864;49.220;8.654;2022-09-09T10:50:01;20.80;98.40
5683;DHT22;2864;49.220;8.654;2022-09-09T10:55:20;20.80;97.20
5683;DHT22;2864;49.220;8.654;2022-09-09T10:57:51;20.60;96.90
5683;DHT22;2864;49.220;8.654;2022-09-09T11:00:22;20.30;97.10
5683;DHT22;2864;49.220;8.654;2022-09-09T11:03:01;20.10;97.60
5683;DHT22;2864;49.220;8.654;2022-09-09T11:05:39;20.10;98.00
5683;DHT22;2864;49.220;8.654;2022-09-09T11:08:14;20.40;98.40
5683;DHT22;2864;49.220;8.654;2022-09-09T11:16:50;21.10;97.90
5683;DHT22;2864;49.220;8.654;2022-09-09T11:21:53;21.50;97.40
5683;DHT22;2864;49.220;8.654;2022-09-09T11:30:04;20.90;96.90
5683;DHT22;2864;49.220;8.654;2022-09-09T11:40:36;21.80;95.40
5683;DHT22;2864;49.220;8.654;2022-09-09T11:43:13;21.80;92.40
5683;DHT22;2864;49.220;8.654;2022-09-09T11:45:41;22.20;92.00
5683;DHT22;2864;49.220;8.654;2022-09-09T11:48:24;22.70;89.80
5683;DHT22;2864;49.220;8.654;2022-09-09T11:51:01;23.00;90.10
5683;DHT22;2864;49.220;8.654;2022-09-09T11:53:28;23.00;85.80
5683;DHT22;2864;49.220;8.654;2022-09-09T11:56:12;23.20;87.70
5683;DHT22;2864;49.220;8.654;2022-09-09T11:58:53;23.60;85.20
5683;DHT22;2864;49.220;8.654;2022-09-09T12:01:33;23.60;83.40
5683;DHT22;2864;49.220;8.654;2022-09-09T12:04:09;23.80;84.20
5683;DHT22;2864;49.220;8.654;2022-09-09T12:06:45;24.10;81.50
5683;DHT22;2864;49.220;8.654;2022-09-09T12:17:20;24.00;79.90
5683;DHT22;2864;49.220;8.654;2022-09-09T12:19:48;23.80;79.60
5683;DHT22;2864;49.220;8.654;2022-09-09T12:33:37;22.00;80.90
5683;DHT22;2864;49.220;8.654;2022-09-09T12:36:13;21.80;82.30
5683;DHT22;2864;49.220;8.654;2022-09-09T12:38:42;21.70;84.20
5683;DHT22;2864;49.220;8.654;2022-09-09T12:41:26;21.90;84.50
5683;DHT22;2864;49.220;8.654;2022-09-09T12:44:04;21.70;84.00
5683;DHT22;2864;49.220;8.654;2022-09-09T12:46:38;21.60;84.80
5683;DHT22;2864;49.220;8.654;2022-09-09T12:49:05;21.60;85.50
5683;DHT22;2864;49.220;8.654;2022-09-09T12:51:32;21.30;85.50
5683;DHT22;2864;49.220;8.654;2022-09-09T12:53:59;21.20;86.80
5683;DHT22;2864;49.220;8.654;2022-09-09T12:56:28;20.90;90.00
5683;DHT22;2864;49.220;8.654;2022-09-09T12:58:58;19.90;90.90
5683;DHT22;2864;49.220;8.654;2022-09-09T13:01:32;19.30;91.30
5683;DHT22;2864;49.220;8.654;2022-09-09T13:04:01;19.10;94.20
5683;DHT22;2864;49.220;8.654;2022-09-09T13:06:29;18.90;97.10
5683;DHT22;2864;49.220;8.654;2022-09-09T13:08:59;18.90;99.40
5683;DHT22;2864;49.220;8.654;2022-09-09T13:13:57;18.50;99.90
5683;DHT22;2864;49.220;8.654;2022-09-09T13:16:27;18.30;99.90
5683;DHT22;2864;49.220;8.654;2022-09-09T13:19:02;18.10;99.90
5683;DHT22;2864;49.220;8.654;2022-09-09T13:21:36;17.90;99.90
5683;DHT22;2864;49.220;8.654;2022-09-09T13:24:21;18.10;99.90
5683;DHT22;2864;49.220;8.654;2022-09-09T13:29:28;17.80;99.90
5683;DHT22;2864;49.220;8.654;2022-09-09T13:31:54;17.00;99.90
5683;DHT22;2864;49.220;8.654;2022-09-09T13:34:30;18.50;99.90
5683;DHT22;2864;49.220;8.654;2022-09-09T13:37:04;17.20;99.90
5683;DHT22;2864;49.220;8.654;2022-09-09T13:39:35;17.40;99.90
5683;DHT22;2864;49.220;8.654;2022-09-09T13:42:02;17.90;99.90
5683;DHT22;2864;49.220;8.654;2022-09-09T13:44:43;18.20;99.90
5683;DHT22;2864;49.220;8.654;2022-09-09T13:47:19;18.80;99.90
5683;DHT22;2864;49.220;8.654;2022-09-09T13:49:46;19.30;99.90
5683;DHT22;2864;49.220;8.654;2022-09-09T13:52:18;19.90;99.90
5683;DHT22;2864;49.220;8.654;2022-09-09T13:54:49;21.40;99.90
5683;DHT22;2864;49.220;8.654;2022-09-09T13:57:21;22.00;99.90
5683;DHT22;2864;49.220;8.654;2022-09-09T13:59:50;23.00;99.90
5683;DHT22;2864;49.220;8.654;2022-09-09T14:02:21;26.20;95.10
5683;DHT22;2864;49.220;8.654;2022-09-09T14:04:48;28.80;89.20
5683;DHT22;2864;49.220;8.654;2022-09-09T14:07:17;31.20;79.60
5683;DHT22;2864;49.220;8.654;2022-09-09T14:09:43;31.90;71.50
5683;DHT22;2864;49.220;8.654;2022-09-09T14:12:11;31.00;70.80
5683;DHT22;2864;49.220;8.654;2022-09-09T14:14:40;31.30;65.60
5683;DHT22;2864;49.220;8.654;2022-09-09T14:17:07;32.00;67.00
5683;DHT22;2864;49.220;8.654;2022-09-09T14:19:36;32.10;65.10
5683;DHT22;2864;49.220;8.654;2022-09-09T14:22:05;30.10;66.20
5683;DHT22;2864;49.220;8.654;2022-09-09T14:24:30;30.90;65.60
5683;DHT22;2864;49.220;8.654;2022-09-09T14:26:56;32.20;64.60
5683;DHT22;2864;49.220;8.654;2022-09-09T14:29:21;32.90;61.70
5683;DHT22;2864;49.220;8.654;2022-09-09T14:31:47;31.00;65.00
5683;DHT22;2864;49.220;8.654;2022-09-09T14:34:13;28.30;67.80
5683;DHT22;2864;49.220;8.654;2022-09-09T14:36:40;26.40;73.50
5683;DHT22;2864;49.220;8.654;2022-09-09T14:39:06;25.70;76.20
5683;DHT22;2864;49.220;8.654;2022-09-09T14:41:32;26.80;76.90
5683;DHT22;2864;49.220;8.654;2022-09-09T14:44:00;27.30;73.50
5683;DHT22;2864;49.220;8.654;2022-09-09T14:46:26;29.00;68.00
5683;DHT22;2864;49.220;8.654;2022-09-09T14:48:52;31.50;64.40
5683;DHT22;2864;49.220;8.654;2022-09-09T14:51:23;31.20;63.20
5683;DHT22;2864;49.220;8.654;2022-09-09T14:53:55;28.10;66.00
5683;DHT22;2864;49.220;8.654;2022-09-09T14:56:23;26.20;71.50
5683;DHT22;2864;49.220;8.654;2022-09-09T14:58:57;24.90;74.90
5683;DHT22;2864;49.220;8.654;2022-09-09T15:01:24;23.80;76.50
5683;DHT22;2864;49.220;8.654;2022-09-09T15:04:00;23.00;77.00
5683;DHT22;2864;49.220;8.654;2022-09-09T15:06:31;22.40;79.10
5683;DHT22;2864;49.220;8.654;2022-09-09T15:09:00;22.20;79.40
5683;DHT22;2864;49.220;8.654;2022-09-09T15:11:27;23.80;77.90
5683;DHT22;2864;49.220;8.654;2022-09-09T15:13:57;27.40;72.20
5683;DHT22;2864;49.220;8.654;2022-09-09T15:16:25;26.80;70.40
5683;DHT22;2864;49.220;8.654;2022-09-09T15:18:53;25.60;72.40
5683;DHT22;2864;49.220;8.654;2022-09-09T15:21:24;24.40;76.30
5683;DHT22;2864;49.220;8.654;2022-09-09T15:23:50;22.40;76.90
5683;DHT22;2864;49.220;8.654;2022-09-09T15:26:17;21.50;79.90
5683;DHT22;2864;49.220;8.654;2022-09-09T15:28:44;22.50;84.10
5683;DHT22;2864;49.220;8.654;2022-09-09T15:31:13;20.80;85.40
5683;DHT22;2864;49.220;8.654;2022-09-09T15:33:56;21.30;87.10
5683;DHT22;2864;49.220;8.654;2022-09-09T15:36:27;21.00;89.80
5683;DHT22;2864;49.220;8.654;2022-09-09T15:38:54;21.10;90.50
5683;DHT22;2864;49.220;8.654;2022-09-09T15:41:21;23.10;88.30
5683;DHT22;2864;49.220;8.654;2022-09-09T15:43:56;26.20;85.30
5683;DHT22;2864;49.220;8.654;2022-09-09T15:46:35;26.90;80.20
5683;DHT22;2864;49.220;8.654;2022-09-09T15:51:33;26.30;78.50
5683;DHT22;2864;49.220;8.654;2022-09-09T15:53:59;25.10;83.50
5683;DHT22;2864;49.220;8.654;2022-09-09T15:56:26;24.20;82.30
5683;DHT22;2864;49.220;8.654;2022-09-09T15:58:53;24.50;84.10
5683;DHT22;2864;49.220;8.654;2022-09-09T16:01:20;24.00;80.30
5683;DHT22;2864;49.220;8.654;2022-09-09T16:03:46;27.10;81.80
5683;DHT22;2864;49.220;8.654;2022-09-09T16:06:22;28.80;75.10
5683;DHT22;2864;49.220;8.654;2022-09-09T16:08:50;29.70;74.70
5683;DHT22;2864;49.220;8.654;2022-09-09T16:11:34;29.00;75.30
5683;DHT22;2864;49.220;8.654;2022-09-09T16:14:00;27.20;78.30
5683;DHT22;2864;49.220;8.654;2022-09-09T16:16:29;25.60;79.20
5683;DHT22;2864;49.220;8.654;2022-09-09T16:19:00;24.80;83.30
5683;DHT22;2864;49.220;8.654;2022-09-09T16:21:34;23.10;84.20
5683;DHT22;2864;49.220;8.654;2022-09-09T16:24:02;23.10;87.00
5683;DHT22;2864;49.220;8.654;2022-09-09T16:26:29;21.70;88.80
5683;DHT22;2864;49.220;8.654;2022-09-09T16:28:56;21.20;89.00
5683;DHT22;2864;49.220;8.654;2022-09-09T16:31:24;20.80;90.70
5683;DHT22;2864;49.220;8.654;2022-09-09T16:33:49;21.90;92.70
5683;DHT22;2864;49.220;8.654;2022-09-09T16:36:19;21.40;93.00
5683;DHT22;2864;49.220;8.654;2022-09-09T16:38:44;19.80;94.00
5683;DHT22;2864;49.220;8.654;2022-09-09T16:41:11;20.30;95.20
5683;DHT22;2864;49.220;8.654;2022-09-09T16:43:38;19.40;96.50
5683;DHT22;2864;49.220;8.654;2022-09-09T16:46:20;19.30;97.90
5683;DHT22;2864;49.220;8.654;2022-09-09T16:48:47;19.20;99.30
5683;DHT22;2864;49.220;8.654;2022-09-09T16:51:15;18.90;99.90
5683;DHT22;2864;49.220;8.654;2022-09-09T16:56:26;18.70;99.90
5683;DHT22;2864;49.220;8.654;2022-09-09T16:59:01;18.60;99.90
5683;DHT22;2864;49.220;8.654;2022-09-09T17:01:35;18.40;99.90
5683;DHT22;2864;49.220;8.654;2022-09-09T17:04:10;18.30;99.90
5683;DHT22;2864;49.220;8.654;2022-09-09T17:06:40;18.30;99.90
5683;DHT22;2864;49.220;8.654;2022-09-09T17:09:10;19.10;99.90
5683;DHT22;2864;49.220;8.654;2022-09-09T17:11:42;17.70;99.90
5683;DHT22;2864;49.220;8.654;2022-09-09T17:14:11;17.30;99.90
5683;DHT22;2864;49.220;8.654;2022-09-09T17:16:47;17.00;99.90
5683;DHT22;2864;49.220;8.654;2022-09-09T17:19:16;16.80;99.90
5683;DHT22;2864;49.220;8.654;2022-09-09T17:22:06;16.60;99.90
5683;DHT22;2864;49.220;8.654;2022-09-09T17:24:33;16.50;99.90
5683;DHT22;2864;49.220;8.654;2022-09-09T17:26:59;16.40;99.90
5683;DHT22;2864;49.220;8.654;2022-09-09T17:29:27;16.40;99.90
5683;DHT22;2864;49.220;8.654;2022-09-09T17:31:53;16.20;99.90
5683;DHT22;2864;49.220;8.654;2022-09-09T17:34:20;15.80;99.90
5683;DHT22;2864;49.220;8.654;2022-09-09T17:37:12;16.00;99.90
5683;DHT22;2864;49.220;8.654;2022-09-09T17:43:48;15.90;99.90
5683;DHT22;2864;49.220;8.654;2022-09-09T17:49:32;15.60;99.90
5683;DHT22;2864;49.220;8.654;2022-09-09T17:52:29;15.50;99.90
5683;DHT22;2864;49.220;8.654;2022-09-09T17:55:12;15.40;99.90
5683;DHT22;2864;49.220;8.654;2022-09-09T18:00:44;15.30;99.90
5683;DHT22;2864;49.220;8.654;2022-09-09T18:03:21;16.60;99.90
5683;DHT22;2864;49.220;8.654;2022-09-09T18:06:01;15.10;99.90
5683;DHT22;2864;49.220;8.654;2022-09-09T18:11:31;15.00;99.90
5683;DHT22;2864;49.220;8.654;2022-09-09T18:14:00;14.90;99.90
5683;DHT22;2864;49.220;8.654;2022-09-09T18:16:31;14.80;99.90
5683;DHT22;2864;49.220;8.654;2022-09-09T18:19:00;14.70;99.90
5683;DHT22;2864;49.220;8.654;2022-09-09T18:21:32;13.50;99.90
5683;DHT22;2864;49.220;8.654;2022-09-09T18:24:00;14.70;99.90
5683;DHT22;2864;49.220;8.654;2022-09-09T18:26:26;14.60;99.90
5683;DHT22;2864;49.220;8.654;2022-09-09T18:28:54;14.70;99.90
5683;DHT22;2864;49.220;8.654;2022-09-09T18:31:22;14.70;99.90
5683;DHT22;2864;49.220;8.654;2022-09-09T18:33:49;14.60;99.90
5683;DHT22;2864;49.220;8.654;2022-09-09T18:36:18;14.60;99.90
5683;DHT22;2864;49.220;8.654;2022-09-09T18:38:44;15.20;99.90
5683;DHT22;2864;49.220;8.654;2022-09-09T18:41:23;14.70;99.90
5683;DHT22;2864;49.220;8.654;2022-09-09T18:43:51;14.70;99.90
5683;DHT22;2864;49.220;8.654;2022-09-09T18:46:18;15.90;99.90
5683;DHT22;2864;49.220;8.654;2022-09-09T18:48:45;16.40;99.90
5683;DHT22;2864;49.220;8.654;2022-09-09T18:51:13;15.00;99.90
5683;DHT22;2864;49.220;8.654;2022-09-09T18:53:39;15.00;99.90
5683;DHT22;2864;49.220;8.654;2022-09-09T18:56:12;15.10;99.90
5683;DHT22;2864;49.220;8.654;2022-09-09T18:58:38;16.10;99.90
5683;DHT22;2864;49.220;8.654;2022-09-09T19:01:08;15.10;99.90
5683;DHT22;2864;49.220;8.654;2022-09-09T19:03:35;15.20;99.90
5683;DHT22;2864;49.220;8.654;2022-09-09T19:06:02;15.30;99.90